Time;durP1;ratioP1;P1;durP2;ratioP2;P2;SDS_P1;SDS_P2;PMS_P1;PMS_P2;Temp;Humidity;BMP_temperature;BMP_pressure;BME280_temperature;BME280_humidity;BME280_pressure;Samples;Min_cycle;Max_cycle;Signal;HPM_P1;HPM_P2
2022/06/12 00:00:33;;;;;;;3.28;1.65;;;;;;;15.68;67.64;101777.50;5059150;28;20164;-80
2022/06/12 00:02:59;;;;;;;5.53;1.70;;;;;;;15.66;67.22;101783.69;5058912;28;20052;-80
2022/06/12 00:05:28;;;;;;;4.15;1.50;;;;;;;15.63;67.34;101779.34;5059054;28;20043;-79
2022/06/12 00:07:54;;;;;;;7.97;1.83;;;;;;;15.61;67.36;101782.91;5058608;28;20028;-79
2022/06/12 00:10:20;;;;;;;8.48;2.10;;;;;;;15.59;65.99;101792.63;5058666;28;20492;-79
2022/06/12 00:12:46;;;;;;;4.57;1.40;;;;;;;15.53;66.75;101793.63;5075723;28;20016;-79
2022/06/12 00:15:14;;;;;;;4.78;1.92;;;;;;;15.48;67.29;101792.81;5058812;28;20116;-79
2022/06/12 00:17:41;;;;;;;3.63;1.80;;;;;;;15.44;67.39;101788.50;5059117;28;20039;-80
2022/06/12 00:20:08;;;;;;;3.40;1.45;;;;;;;15.41;67.91;101788.59;5058583;28;20046;-79
2022/06/12 00:22:33;;;;;;;2.65;1.50;;;;;;;15.38;67.78;101790.34;5058325;28;20367;-80
2022/06/12 00:24:59;;;;;;;4.82;1.70;;;;;;;15.36;68.00;101786.88;5058355;28;20030;-78
2022/06/12 00:27:24;;;;;;;4.80;1.80;;;;;;;15.35;68.82;101790.44;5058678;28;20043;-80
2022/06/12 00:29:50;;;;;;;2.97;1.63;;;;;;;15.35;68.21;101800.06;5059048;28;20024;-78
2022/06/12 00:32:16;;;;;;;3.60;1.58;;;;;;;15.36;68.32;101791.28;5059816;28;20020;-79
2022/06/12 00:34:50;;;;;;;5.72;1.95;;;;;;;15.36;67.55;101797.41;5062971;28;20039;-79
2022/06/12 00:37:18;;;;;;;8.73;2.38;;;;;;;15.36;68.15;101792.13;5062963;28;20107;-79
2022/06/12 00:39:45;;;;;;;7.05;4.13;;;;;;;15.36;67.89;101786.88;5062768;28;20028;-79
2022/06/12 00:42:36;;;;;;;17.63;9.52;;;;;;;15.37;67.81;101790.41;5079750;28;20079;-80
2022/06/12 00:45:30;;;;;;;11.10;6.82;;;;;;;15.36;67.18;101786.00;5062670;28;20150;-79
2022/06/12 00:47:56;;;;;;;10.35;3.10;;;;;;;15.36;67.48;101786.88;5061963;28;20028;-79
2022/06/12 00:50:22;;;;;;;4.63;1.90;;;;;;;15.36;66.95;101792.13;5062665;28;20485;-79
2022/06/12 00:52:49;;;;;;;4.43;1.63;;;;;;;15.35;68.13;101790.44;5062116;28;20073;-79
2022/06/12 00:55:51;;;;;;;3.25;1.88;;;;;;;15.33;67.99;101786.09;5062043;28;20291;-82
2022/06/12 00:58:20;;;;;;;6.30;2.10;;;;;;;15.33;67.60;101786.94;5077770;28;20078;-81
2022/06/12 01:00:45;;;;;;;5.68;2.00;;;;;;;15.30;68.57;101781.75;5061212;28;20047;-81
2022/06/12 01:03:11;;;;;;;6.07;2.00;;;;;;;15.26;69.05;101777.44;5061581;28;20052;-81
2022/06/12 01:08:21;;;;;;;4.68;1.92;;;;;;;15.19;69.60;101773.19;5081275;28;20546;-81
2022/06/12 01:10:49;;;;;;;4.45;1.58;;;;;;;15.17;69.44;101781.13;5061351;28;20028;-81
2022/06/12 01:13:29;;;;;;;5.03;1.98;;;;;;;15.14;68.79;101781.16;5061664;28;20034;-81
2022/06/12 01:16:01;;;;;;;4.85;2.13;;;;;;;15.09;69.06;101771.59;5061546;28;20020;-82
2022/06/12 01:18:36;;;;;;;6.45;1.90;;;;;;;15.08;68.83;101770.75;5061352;28;20024;-81
2022/06/12 01:21:48;;;;;;;4.70;2.13;;;;;;;15.04;69.42;101776.97;5061572;28;20453;-81
2022/06/12 01:24:37;;;;;;;3.35;1.60;;;;;;;15.03;69.21;101768.19;5052986;28;20059;-81
2022/06/12 01:27:18;;;;;;;4.45;1.67;;;;;;;15.02;68.74;101771.72;5078035;28;20377;-81
2022/06/12 01:30:09;;;;;;;5.05;1.92;;;;;;;14.97;68.88;101767.41;5060958;28;20022;-81
2022/06/12 01:32:44;;;;;;;4.97;1.65;;;;;;;14.90;70.12;101766.66;5077668;28;20026;-81
2022/06/12 01:35:16;;;;;;;4.57;1.75;;;;;;;14.86;69.69;101764.97;5060584;28;20023;-81
2022/06/12 01:37:59;;;;;;;3.53;1.73;;;;;;;14.80;70.61;101771.22;5077809;28;20118;-81
2022/06/12 01:40:32;;;;;;;5.18;2.03;;;;;;;14.79;71.35;101763.34;5063485;28;20024;-81
2022/06/12 01:43:19;;;;;;;4.70;1.77;;;;;;;14.73;70.44;101759.06;5061809;28;20527;-83
2022/06/12 01:46:02;;;;;;;3.80;2.00;;;;;;;14.73;69.59;101763.47;5078293;28;20016;-81
2022/06/12 01:48:58;;;;;;;4.05;1.88;;;;;;;14.66;70.57;101757.44;5078013;28;20069;-81
2022/06/12 01:51:31;;;;;;;51.03;35.15;;;;;;;14.61;69.96;101752.19;5078136;28;20051;-81
2022/06/12 01:54:03;;;;;;;51.30;31.27;;;;;;;14.58;70.10;101751.41;5063511;28;20024;-82
2022/06/12 01:56:49;;;;;;;31.48;20.70;;;;;;;14.54;71.67;101755.81;5062227;28;20023;-81
2022/06/12 01:59:26;;;;;;;5.97;5.05;;;;;;;14.52;71.26;101749.75;5077945;28;20028;-81
2022/06/12 02:01:59;;;;;;;5.30;2.80;;;;;;;14.51;71.18;101748.00;5061227;28;20032;-80
2022/06/12 02:04:29;;;;;;;3.97;2.17;;;;;;;14.50;71.66;101747.09;5061445;28;20016;-83
2022/06/12 02:07:10;;;;;;;4.03;2.05;;;;;;;14.48;71.57;101746.28;5077776;28;20024;-80
2022/06/12 02:09:50;;;;;;;7.53;2.08;;;;;;;14.47;71.83;101751.56;5077949;28;20038;-80
2022/06/12 02:15:18;;;;;;;2.95;1.80;;;;;;;14.48;71.09;101750.66;5080832;28;20061;-81
2022/06/12 02:17:49;;;;;;;6.65;1.77;;;;;;;14.48;70.58;101748.03;5077814;28;20020;-81
2022/06/12 02:20:18;;;;;;;7.03;1.88;;;;;;;14.48;71.05;101750.66;5060831;28;20032;-81
2022/06/12 02:22:45;;;;;;;3.45;1.65;;;;;;;14.50;71.39;101751.50;5060831;28;20107;-81
2022/06/12 02:25:17;;;;;;;4.35;2.25;;;;;;;14.50;71.71;101751.50;5060809;28;20045;-81
2022/06/12 02:27:48;;;;;;;3.72;2.20;;;;;;;14.47;71.78;101755.06;5060963;28;20020;-80
2022/06/12 02:30:24;;;;;;;2.78;1.80;;;;;;;14.48;70.45;101753.28;5060539;28;20024;-81
2022/06/12 02:32:57;;;;;;;6.28;1.80;;;;;;;14.45;71.55;101750.72;5060862;28;20024;-81
2022/06/12 02:35:33;;;;;;;6.10;1.83;;;;;;;14.43;70.86;101749.88;5061050;28;20023;-81
2022/06/12 02:38:03;;;;;;;4.75;2.17;;;;;;;14.41;71.70;101751.66;5059562;28;20076;-81
2022/06/12 02:40:42;;;;;;;3.33;1.85;;;;;;;14.37;71.33;101751.72;5060328;28;20034;-81
2022/06/12 02:43:14;;;;;;;4.88;1.80;;;;;;;14.34;71.59;101750.88;5061428;28;20036;-80
2022/06/12 02:45:46;;;;;;;6.55;1.95;;;;;;;14.32;70.71;101748.28;5061244;28;20111;-81
2022/06/12 02:48:12;;;;;;;2.67;1.60;;;;;;;14.30;71.42;101744.81;5076916;28;20111;-81
2022/06/12 02:50:49;;;;;;;5.85;1.90;;;;;;;14.29;70.96;101747.44;5060620;28;20056;-80
2022/06/12 02:53:24;;;;;;;4.57;2.08;;;;;;;14.25;71.50;101746.63;5060464;28;20070;-82
2022/06/12 02:56:39;;;;;;;6.55;1.92;;;;;;;14.20;70.96;101741.44;5059066;28;20024;-81
2022/06/12 02:59:41;;;;;;;4.13;1.80;;;;;;;14.19;71.05;101730.94;5068343;28;20434;-81
2022/06/12 03:02:23;;;;;;;7.18;1.90;;;;;;;14.15;71.01;101729.25;5035764;28;20051;-80
2022/06/12 03:04:55;;;;;;;4.47;1.95;;;;;;;14.10;71.28;101731.09;5059846;28;20060;-81
2022/06/12 03:07:20;;;;;;;2.88;1.73;;;;;;;14.07;72.09;101732.00;5076439;28;20028;-80
2022/06/12 03:09:46;;;;;;;2.90;1.77;;;;;;;14.03;72.07;101741.69;5075702;28;20107;-82
2022/06/12 03:12:12;;;;;;;8.75;2.00;;;;;;;14.02;71.95;101734.69;5075553;28;20024;-80
2022/06/12 03:14:38;;;;;;;3.22;1.90;;;;;;;14.01;72.14;101732.09;5058977;28;20119;-80
2022/06/12 03:17:05;;;;;;;4.30;1.70;;;;;;;13.99;71.77;101732.13;5075325;28;20441;-80
2022/06/12 03:19:42;;;;;;;5.28;2.40;;;;;;;13.98;72.14;101737.38;5059131;28;20047;-80
2022/06/12 03:22:19;;;;;;;2.95;1.80;;;;;;;13.97;72.02;101736.50;5059134;28;20350;-81
2022/06/12 03:25:10;;;;;;;7.38;2.10;;;;;;;13.96;71.19;101739.16;5075387;28;20027;-81
2022/06/12 03:28:14;;;;;;;4.80;1.70;;;;;;;13.93;71.06;101733.94;5075340;28;20020;-81
2022/06/12 03:30:56;;;;;;;5.60;1.88;;;;;;;13.89;71.38;101738.38;5074850;28;20080;-82
2022/06/12 03:33:59;;;;;;;3.20;1.80;;;;;;;13.86;72.34;101736.69;5059228;28;20035;-80
2022/06/12 03:36:38;;;;;;;11.02;2.47;;;;;;;13.85;71.99;101729.69;5059174;28;20034;-82
2022/06/12 03:39:18;;;;;;;3.97;2.38;;;;;;;13.83;72.29;101733.22;5060803;28;20027;-81
2022/06/12 03:42:42;;;;;;;4.63;2.38;;;;;;;13.82;71.59;101742.81;5060846;28;20020;-81
2022/06/12 03:45:12;;;;;;;3.45;1.92;;;;;;;13.80;72.53;101744.63;5012483;28;20038;-81
2022/06/12 03:47:41;;;;;;;7.78;2.30;;;;;;;13.82;72.05;101739.34;5012980;28;20415;-82
2022/06/12 03:50:30;;;;;;;5.80;2.20;;;;;;;13.82;72.54;101734.09;5049191;28;20560;-82
2022/06/12 03:53:18;;;;;;;5.15;2.20;;;;;;;13.84;72.74;101743.69;5077163;28;20055;-82
2022/06/12 03:58:45;;;;;;;5.60;2.75;;;;;;;13.83;72.71;101738.47;5079866;28;20405;-80
2022/06/12 04:01:11;;;;;;;6.53;2.35;;;;;;;13.84;71.94;101745.47;5059884;28;20024;-81
2022/06/12 04:03:43;;;;;;;5.93;2.00;;;;;;;13.84;72.58;101734.97;5059626;28;20028;-81
2022/06/12 04:06:12;;;;;;;4.82;2.03;;;;;;;13.84;72.36;101737.59;5059761;28;20020;-82
2022/06/12 04:08:43;;;;;;;3.90;1.73;;;;;;;13.83;72.81;101741.94;5059984;28;20032;-82
2022/06/12 04:11:11;;;;;;;4.57;2.13;;;;;;;13.86;72.88;101738.41;5060007;28;20038;-82
2022/06/12 04:13:37;;;;;;;4.55;2.13;;;;;;;13.88;72.64;101741.91;5077159;28;20024;-80
2022/06/12 04:16:29;;;;;;;5.93;2.92;;;;;;;13.89;73.17;101748.00;5059888;28;20366;-82
2022/06/12 04:18:55;;;;;;;3.90;1.83;;;;;;;13.88;73.11;101741.91;5060373;28;20024;-82
2022/06/12 04:21:36;;;;;;;7.05;1.85;;;;;;;13.89;73.47;101742.75;5060322;28;20024;-82
2022/06/12 04:24:16;;;;;;;2.67;2.08;;;;;;;13.90;74.46;101737.47;5059988;28;20042;-82
2022/06/12 04:27:16;;;;;;;4.00;2.40;;;;;;;13.94;74.15;101743.56;5076534;28;20111;-82
2022/06/12 04:29:54;;;;;;;2.22;1.50;;;;;;;13.96;74.99;101745.28;5060387;28;20038;-83
2022/06/12 04:32:19;;;;;;;4.88;2.25;;;;;;;13.99;74.42;101745.25;5059712;28;20024;-81
2022/06/12 04:34:45;;;;;;;4.03;1.98;;;;;;;14.03;74.99;101751.34;5059749;28;20034;-83
2022/06/12 04:37:15;;;;;;;7.45;2.08;;;;;;;14.05;74.83;101754.78;5059830;28;20562;-83
2022/06/12 04:39:41;;;;;;;4.18;1.55;;;;;;;14.10;75.10;101741.63;5060290;28;20031;-82
2022/06/12 04:42:07;;;;;;;4.57;1.55;;;;;;;14.13;75.42;101741.56;5059767;28;20385;-82
2022/06/12 04:44:33;;;;;;;5.15;2.05;;;;;;;14.15;76.03;101730.13;5059758;28;20507;-83
2022/06/12 04:47:00;;;;;;;5.18;1.73;;;;;;;14.20;75.66;101740.56;5059874;28;20132;-82
2022/06/12 04:49:29;;;;;;;3.42;1.73;;;;;;;14.23;75.52;101732.63;5059683;28;20119;-83
2022/06/12 04:51:57;;;;;;;6.93;2.10;;;;;;;14.28;75.33;101730.81;5059866;28;20066;-81
2022/06/12 04:54:24;;;;;;;3.95;1.52;;;;;;;14.31;75.35;101725.50;5076747;28;20164;-81
2022/06/12 04:56:50;;;;;;;3.83;1.60;;;;;;;14.35;75.58;101721.94;5060046;28;20031;-82
2022/06/12 04:59:17;;;;;;;4.35;2.10;;;;;;;14.40;75.94;101721.00;5059555;28;20028;-81
2022/06/12 05:01:43;;;;;;;4.38;2.20;;;;;;;14.43;75.63;101729.72;5060138;28;20020;-81
2022/06/12 05:04:10;;;;;;;6.40;2.08;;;;;;;14.48;75.11;101724.38;5060213;28;20030;-82
2022/06/12 05:06:36;;;;;;;5.45;2.20;;;;;;;14.52;75.40;101719.06;5059626;28;20396;-82
2022/06/12 05:09:02;;;;;;;5.13;2.15;;;;;;;14.58;75.51;101717.22;5060044;28;20022;-82
2022/06/12 05:11:28;;;;;;;4.53;1.58;;;;;;;14.61;75.59;101712.75;5059779;28;20123;-82
2022/06/12 05:13:54;;;;;;;5.65;2.03;;;;;;;14.64;75.60;101707.50;5059306;28;20453;-81
2022/06/12 05:16:28;;;;;;;3.95;1.63;;;;;;;14.68;74.04;101710.94;5059471;28;20028;-82
2022/06/12 05:18:53;;;;;;;5.00;1.70;;;;;;;14.72;73.08;101707.34;5061449;28;20047;-83
2022/06/12 05:21:19;;;;;;;2.83;1.35;;;;;;;14.78;73.33;101709.00;5062994;28;20028;-82
2022/06/12 05:23:44;;;;;;;3.40;1.77;;;;;;;14.83;73.69;101707.16;5063155;28;20119;-82
2022/06/12 05:26:15;;;;;;;7.03;1.73;;;;;;;14.87;73.07;101716.72;5080014;28;20492;-82
2022/06/12 05:28:40;;;;;;;4.25;1.70;;;;;;;14.91;73.17;101710.53;5063065;28;20023;-82
2022/06/12 05:31:05;;;;;;;5.35;1.75;;;;;;;14.94;73.35;101720.97;5062759;28;20478;-83
2022/06/12 05:33:31;;;;;;;4.90;1.92;;;;;;;14.97;72.59;101718.31;5063114;28;20115;-82
2022/06/12 05:35:56;;;;;;;3.75;1.33;;;;;;;15.00;71.99;101720.88;5063373;28;20020;-82
2022/06/12 05:38:22;;;;;;;5.82;1.65;;;;;;;15.04;72.26;101726.97;5062994;28;20031;-81
2022/06/12 05:40:47;;;;;;;2.83;1.20;;;;;;;15.07;72.74;101724.28;5062683;28;20092;-82
2022/06/12 05:43:12;;;;;;;4.70;1.90;;;;;;;15.09;72.94;101711.09;5062381;28;20020;-82
2022/06/12 05:45:38;;;;;;;3.17;1.40;;;;;;;15.11;73.44;101717.19;5062706;28;20016;-81
2022/06/12 05:48:18;;;;;;;7.05;1.80;;;;;;;15.13;72.78;101712.75;5062629;28;20024;-83
2022/06/12 05:50:48;;;;;;;6.78;1.98;;;;;;;15.15;71.14;101710.97;5062284;28;20030;-80
2022/06/12 05:53:14;;;;;;;8.63;1.73;;;;;;;15.18;71.96;101711.78;5063146;28;20020;-83
2022/06/12 05:55:40;;;;;;;10.20;1.92;;;;;;;15.21;71.26;101697.69;5063202;28;20028;-83
2022/06/12 05:58:06;;;;;;;5.50;2.10;;;;;;;15.24;71.38;101708.16;5062762;28;20035;-79
2022/06/12 06:00:31;;;;;;;5.43;1.67;;;;;;;15.28;71.86;101707.19;5062425;28;20401;-79
2022/06/12 06:02:57;;;;;;;6.00;1.67;;;;;;;15.30;71.28;101705.41;5062441;28;20027;-81
2022/06/12 06:05:23;;;;;;;8.70;1.88;;;;;;;15.34;67.93;101708.84;5062573;28;20020;-80
2022/06/12 06:07:48;;;;;;;8.05;1.73;;;;;;;15.39;68.77;101706.97;5061950;28;20055;-79
2022/06/12 06:10:18;;;;;;;9.85;2.05;;;;;;;15.47;67.02;101714.72;5062092;28;20028;-80
2022/06/12 06:12:43;;;;;;;5.60;1.50;;;;;;;15.51;66.93;101717.25;5062610;28;20023;-83
2022/06/12 06:15:10;;;;;;;4.63;1.58;;;;;;;15.57;67.13;101713.66;5062341;28;20032;-81
2022/06/12 06:17:36;;;;;;;6.05;1.58;;;;;;;15.61;67.72;101702.16;5062008;28;20515;-82
2022/06/12 06:20:01;;;;;;;4.50;1.63;;;;;;;15.64;68.42;101707.34;5062126;28;20019;-82
2022/06/12 06:22:27;;;;;;;7.53;1.80;;;;;;;15.66;69.15;101700.25;5061902;28;20028;-82
2022/06/12 06:24:52;;;;;;;6.30;1.58;;;;;;;15.70;69.28;101707.19;5062662;28;20031;-83
2022/06/12 06:27:18;;;;;;;4.53;1.67;;;;;;;15.72;69.68;101707.19;5061700;28;20114;-82
2022/06/12 06:29:44;;;;;;;6.72;1.67;;;;;;;15.78;67.49;101711.47;5078523;28;20026;-82
2022/06/12 06:32:11;;;;;;;8.43;1.90;;;;;;;15.83;65.83;101707.00;5062276;28;20016;-82
2022/06/12 06:34:38;;;;;;;7.20;2.05;;;;;;;15.87;65.88;101708.66;5061827;28;20114;-83
2022/06/12 06:37:05;;;;;;;6.75;1.80;;;;;;;15.93;65.29;101707.66;5061241;28;20081;-83
2022/06/12 06:39:31;;;;;;;8.18;2.30;;;;;;;15.96;65.25;101708.44;5061994;28;20111;-82
2022/06/12 06:41:56;;;;;;;7.97;2.03;;;;;;;15.99;63.92;101704.84;5061843;28;20070;-81
2022/06/12 06:47:06;;;;;;;5.50;1.95;;;;;;;16.08;64.69;101711.69;5081123;28;20034;-81
2022/06/12 06:49:32;;;;;;;4.60;1.90;;;;;;;16.13;64.96;101715.97;5061666;28;20417;-80
2022/06/12 06:51:58;;;;;;;9.80;2.17;;;;;;;16.16;64.04;101709.75;5061903;28;20024;-80
2022/06/12 06:54:23;;;;;;;8.05;1.55;;;;;;;16.18;63.98;101702.66;5061725;28;20048;-80
2022/06/12 06:56:49;;;;;;;5.45;1.63;;;;;;;16.25;63.99;101704.25;5078039;28;20040;-81
2022/06/12 06:59:15;;;;;;;9.18;1.98;;;;;;;16.29;63.82;101710.31;5061658;28;20049;-80
2022/06/12 07:01:40;;;;;;;7.18;1.67;;;;;;;16.32;61.13;101708.50;5061866;28;20118;-79
2022/06/12 07:04:06;;;;;;;4.35;1.27;;;;;;;16.37;58.96;101706.63;5078423;28;20386;-81
2022/06/12 07:06:31;;;;;;;4.68;1.45;;;;;;;16.42;59.03;101701.22;5061367;28;20012;-81
2022/06/12 07:08:57;;;;;;;8.20;1.67;;;;;;;16.45;58.25;101701.13;5061830;28;20030;-79
2022/06/12 07:11:23;;;;;;;6.55;1.38;;;;;;;16.50;58.36;101693.97;5061431;28;20028;-80
2022/06/12 07:13:50;;;;;;;7.25;1.33;;;;;;;16.54;59.10;101707.97;5061159;28;20088;-81
2022/06/12 07:16:16;;;;;;;7.60;1.80;;;;;;;16.59;57.50;101707.84;5060796;28;20031;-81
2022/06/12 07:18:42;;;;;;;4.85;1.35;;;;;;;16.62;57.96;101700.72;5061582;28;20020;-81
2022/06/12 07:21:07;;;;;;;5.20;1.40;;;;;;;16.65;58.17;101705.06;5061281;28;20362;-81
2022/06/12 07:23:34;;;;;;;4.90;1.13;;;;;;;16.67;57.29;101696.16;5060867;28;20028;-81
2022/06/12 07:26:04;;;;;;;10.73;1.55;;;;;;;16.68;56.71;101689.13;5060755;28;20099;-80
2022/06/12 07:28:30;;;;;;;4.78;1.38;;;;;;;16.70;58.45;101684.66;5059070;28;20051;-80
2022/06/12 07:30:56;;;;;;;6.10;1.38;;;;;;;16.72;58.24;101689.00;5075485;28;20405;-78
2022/06/12 07:33:22;;;;;;;4.97;1.30;;;;;;;16.75;59.04;101689.84;5059181;28;20020;-80
2022/06/12 07:35:48;;;;;;;4.00;1.30;;;;;;;16.76;60.04;101692.44;5058646;28;20051;-80
2022/06/12 07:38:16;;;;;;;3.25;1.00;;;;;;;16.79;59.59;101688.88;5058012;28;20511;-82
2022/06/12 07:40:45;;;;;;;3.63;1.38;;;;;;;16.83;57.78;101695.78;5057577;28;20031;-81
2022/06/12 07:43:11;;;;;;;8.93;1.40;;;;;;;16.87;57.43;101689.53;5058173;28;20485;-80
2022/06/12 07:45:38;;;;;;;4.38;1.30;;;;;;;16.89;57.31;101685.09;5058227;28;20020;-81
2022/06/12 07:48:04;;;;;;;3.80;1.58;;;;;;;16.95;57.89;101687.56;5058241;28;20020;-81
2022/06/12 07:50:30;;;;;;;4.05;1.25;;;;;;;17.00;57.39;101682.16;5058098;28;20076;-84
2022/06/12 07:52:55;;;;;;;4.28;1.25;;;;;;;17.05;55.22;101690.81;5074902;28;20027;-88
2022/06/12 07:55:21;;;;;;;2.67;1.15;;;;;;;17.08;54.38;101687.22;5057528;28;20027;-87
2022/06/12 07:57:48;;;;;;;3.20;1.35;;;;;;;17.13;53.77;101687.97;5057107;28;20474;-88
2022/06/12 08:00:15;;;;;;;5.38;1.35;;;;;;;17.17;53.99;101690.47;5057124;28;20055;-89
2022/06/12 08:02:43;;;;;;;4.13;1.00;;;;;;;17.19;54.15;101687.78;5057181;28;20542;-90
2022/06/12 08:05:08;;;;;;;3.88;1.20;;;;;;;17.24;54.02;101697.31;5057010;28;20035;-88
2022/06/12 08:07:34;;;;;;;6.57;1.20;;;;;;;17.28;53.31;101687.53;5056872;28;20024;-89
2022/06/12 08:10:00;;;;;;;3.03;0.98;;;;;;;17.32;53.42;101686.53;5056753;28;20024;-89
2022/06/12 08:12:26;;;;;;;2.55;0.95;;;;;;;17.37;54.17;101676.72;5057031;28;20122;-89
2022/06/12 08:14:53;;;;;;;5.70;1.17;;;;;;;17.40;54.65;101683.69;5057222;28;20111;-90
2022/06/12 08:17:22;;;;;;;4.03;1.23;;;;;;;17.45;55.40;101688.81;5057653;28;20051;-90
2022/06/12 08:22:32;;;;;;;4.03;1.38;;;;;;;17.51;55.19;101693.94;5076323;28;20039;-90
2022/06/12 08:24:57;;;;;;;5.22;1.10;;;;;;;17.56;53.12;101692.88;5056841;28;20042;-90
2022/06/12 08:27:22;;;;;;;2.92;1.13;;;;;;;17.67;51.96;101695.22;5073464;28;20017;-90
2022/06/12 08:29:49;;;;;;;4.47;1.17;;;;;;;17.71;51.31;101686.28;5056920;28;20035;-90
2022/06/12 08:32:19;;;;;;;3.72;0.90;;;;;;;17.79;49.96;101683.38;5056889;28;20031;-90
2022/06/12 08:34:52;;;;;;;4.43;1.20;;;;;;;17.85;51.16;101685.00;5057228;28;20028;-88
2022/06/12 08:37:24;;;;;;;2.83;0.93;;;;;;;17.88;51.99;101671.69;5073507;28;20394;-88
2022/06/12 08:39:49;;;;;;;2.38;0.90;;;;;;;17.90;52.01;101668.06;5056789;28;20393;-88
2022/06/12 08:42:24;;;;;;;3.55;1.30;;;;;;;17.91;51.91;101671.56;5056687;28;20020;-88
2022/06/12 08:44:55;;;;;;;;;;;;;;;17.96;51.20;101671.47;5057718;28;20024;-88
2022/06/12 08:47:29;;;;;;;3.92;1.40;;;;;;;17.97;52.17;101666.13;5073314;28;20289;-88
2022/06/12 08:50:12;;;;;;;5.70;1.80;;;;;;;17.98;52.08;101667.84;5070590;28;20031;-86
2022/06/12 08:52:45;;;;;;;3.85;0.90;;;;;;;17.98;51.40;101667.84;5112792;28;20542;-88
2022/06/12 08:55:32;;;;;;;4.45;1.02;;;;;;;18.02;49.65;101664.19;5098411;28;20024;-88
2022/06/12 08:58:26;;;;;;;4.95;1.23;;;;;;;18.10;49.75;101674.53;5098965;28;20084;-88
2022/06/12 09:00:54;;;;;;;3.65;0.95;;;;;;;18.14;49.26;101656.81;5076957;28;20035;-87
2022/06/12 09:03:22;;;;;;;3.50;1.13;;;;;;;18.18;49.75;101653.13;5081744;28;20027;-88
2022/06/12 09:05:54;;;;;;;8.13;1.30;;;;;;;18.25;50.71;101654.66;5081331;28;20023;-88
2022/06/12 09:08:51;;;;;;;2.58;0.90;;;;;;;18.28;49.71;101653.69;5079709;22;20132;-84
2022/06/12 09:11:20;;;;;;;2.63;0.93;;;;;;;18.36;49.43;101656.94;5054817;28;20036;-83
2022/06/12 09:13:45;;;;;;;4.97;0.90;;;;;;;18.38;48.70;101645.41;5057749;28;20119;-83
2022/06/12 09:16:33;;;;;;;3.10;1.10;;;;;;;18.43;48.36;101637.28;5057240;28;20504;-84
2022/06/12 09:19:11;;;;;;;4.32;0.93;;;;;;;18.50;49.97;101635.31;5040790;28;20024;-84
2022/06/12 09:21:46;;;;;;;2.55;1.20;;;;;;;18.54;47.27;101644.88;5041146;28;20024;-84
2022/06/12 09:24:36;;;;;;;2.92;0.80;;;;;;;18.53;47.42;101648.44;5042165;28;20028;-83
2022/06/12 09:27:26;;;;;;;2.40;1.10;;;;;;;18.58;46.99;101633.25;5043134;28;20371;-84
2022/06/12 09:30:01;;;;;;;6.65;1.67;;;;;;;18.58;47.77;101636.78;5036302;28;20033;-84
2022/06/12 09:32:54;;;;;;;2.88;0.90;;;;;;;18.63;48.61;101643.69;5037313;28;20119;-83
2022/06/12 09:35:48;;;;;;;5.80;1.10;;;;;;;18.65;46.97;101634.78;5037480;28;20033;-83
2022/06/12 09:38:20;;;;;;;2.83;0.90;;;;;;;18.68;49.07;101632.03;5037322;28;20025;-84
2022/06/12 09:40:52;;;;;;;5.15;1.20;;;;;;;18.74;48.76;101636.22;5037150;28;20029;-83
2022/06/12 09:43:38;;;;;;;1.92;0.95;;;;;;;18.84;47.74;101637.66;5037172;28;20035;-84
2022/06/12 09:46:31;;;;;;;3.58;0.90;;;;;;;18.87;47.19;101623.41;5021849;28;20024;-83
2022/06/12 09:49:06;;;;;;;3.75;1.10;;;;;;;18.90;48.29;101620.72;5037440;28;20036;-84
2022/06/12 09:51:36;;;;;;;2.15;0.90;;;;;;;18.92;47.44;101626.78;5020529;28;20021;-84
2022/06/12 09:54:24;;;;;;;2.85;1.20;;;;;;;18.93;48.35;101628.53;5020464;28;20684;-85
2022/06/12 09:57:38;;;;;;;3.25;1.00;;;;;;;18.98;46.03;101618.63;5019915;28;20021;-84
2022/06/12 10:00:06;;;;;;;4.55;1.13;;;;;;;19.01;48.10;101607.94;5022080;28;20044;-83
2022/06/12 10:02:44;;;;;;;1.98;0.63;;;;;;;19.09;46.10;101616.44;5020788;28;20500;-84
2022/06/12 10:05:17;;;;;;;4.70;1.65;;;;;;;19.15;46.58;101615.34;5053013;28;20035;-81
2022/06/12 10:07:51;;;;;;;5.35;1.20;;;;;;;19.21;47.13;101593.06;5020143;28;20508;-81
2022/06/12 10:10:44;;;;;;;4.20;1.00;;;;;;;19.27;46.46;101599.94;5021736;28;20398;-83
2022/06/12 10:13:14;;;;;;;3.28;0.90;;;;;;;19.33;45.84;101597.88;5006756;28;20037;-81
2022/06/12 10:16:02;;;;;;;4.40;1.10;;;;;;;19.43;46.42;101604.56;5017364;28;20021;-81
2022/06/12 10:18:40;;;;;;;3.47;1.13;;;;;;;19.52;46.78;101603.31;5016433;28;20032;-81
2022/06/12 10:21:14;;;;;;;2.50;0.98;;;;;;;19.57;45.77;101592.56;5024664;28;20021;-82
2022/06/12 10:23:40;;;;;;;3.72;1.00;;;;;;;19.64;45.28;101599.34;5022193;28;20048;-82
2022/06/12 10:26:27;;;;;;;2.60;1.08;;;;;;;19.70;45.35;101587.63;5040124;28;20012;-82
2022/06/12 10:29:09;;;;;;;4.10;1.20;;;;;;;19.72;45.63;101586.66;5021733;28;20037;-81
2022/06/12 10:31:45;;;;;;;3.78;1.35;;;;;;;19.72;46.28;101599.91;5020047;28;20111;-81
2022/06/12 10:34:18;;;;;;;5.00;1.33;;;;;;;19.80;45.85;101586.38;5021265;28;20037;-81
2022/06/12 10:36:44;;;;;;;3.22;1.02;;;;;;;19.82;45.70;101595.09;5019828;28;20025;-81
2022/06/12 10:39:13;;;;;;;2.95;1.15;;;;;;;19.81;45.91;101592.53;5019547;28;20486;-81
2022/06/12 10:41:47;;;;;;;2.80;1.13;;;;;;;19.80;45.88;101583.72;5035659;28;20116;-82
2022/06/12 10:44:39;;;;;;;1.38;0.90;;;;;;;19.86;46.81;101575.50;5019339;28;20482;-82
2022/06/12 10:47:15;;;;;;;2.97;1.10;;;;;;;19.97;47.17;101576.84;5026409;28;20441;-82
2022/06/12 10:49:41;;;;;;;3.80;1.13;;;;;;;20.01;45.74;101573.16;5035500;28;20056;-81
2022/06/12 10:52:14;;;;;;;5.05;1.00;;;;;;;19.99;45.94;101575.88;5019028;28;20414;-82
2022/06/12 10:54:39;;;;;;;1.60;0.90;;;;;;;19.93;44.68;101558.44;5019210;28;20021;-82
2022/06/12 10:57:35;;;;;;;3.35;1.00;;;;;;;20.04;46.18;101558.00;5018615;28;20123;-82
2022/06/12 11:00:14;;;;;;;2.78;1.10;;;;;;;20.08;45.92;101559.56;5035261;28;20040;-82
2022/06/12 11:02:51;;;;;;;4.65;1.15;;;;;;;20.09;44.72;101563.09;5018729;28;20029;-82
2022/06/12 11:05:53;;;;;;;2.80;0.98;;;;;;;20.06;45.08;101565.88;5035215;28;20116;-82
2022/06/12 11:08:34;;;;;;;3.33;1.02;;;;;;;20.00;45.37;101555.50;5018431;28;20037;-81
2022/06/12 11:11:10;;;;;;;3.10;1.08;;;;;;;20.01;45.08;101558.09;5035183;28;20219;-82
2022/06/12 11:14:13;;;;;;;4.38;1.88;;;;;;;20.10;45.71;101563.00;5020144;28;20052;-82
2022/06/12 11:16:50;;;;;;;3.08;1.10;;;;;;;20.24;44.47;101548.31;5051708;28;20032;-82
2022/06/12 11:19:34;;;;;;;2.78;1.13;;;;;;;20.39;45.26;101547.63;5052770;28;20035;-82
2022/06/12 11:22:03;;;;;;;3.65;1.20;;;;;;;20.61;42.87;101541.38;5022018;28;20390;-82
2022/06/12 11:24:37;;;;;;;5.28;1.13;;;;;;;20.65;42.74;101534.97;5018479;28;20467;-82
2022/06/12 11:27:18;;;;;;;2.17;0.82;;;;;;;20.63;43.07;101536.88;5034699;28;20504;-82
2022/06/12 11:29:53;;;;;;;2.50;0.95;;;;;;;20.54;43.89;101539.91;5018364;28;20039;-82
2022/06/12 11:32:31;;;;;;;2.50;0.90;;;;;;;20.62;44.32;101534.28;5022487;28;20029;-83
2022/06/12 11:35:24;;;;;;;3.17;1.20;;;;;;;20.70;43.32;101540.97;5034832;28;20025;-82
2022/06/12 11:38:12;;;;;;;8.38;1.55;;;;;;;20.76;43.09;101532.75;5018196;28;20029;-82
2022/06/12 11:40:42;;;;;;;3.78;0.90;;;;;;;20.91;42.32;101522.34;5018213;28;20036;-82
2022/06/12 11:43:34;;;;;;;2.88;1.10;;;;;;;21.06;41.38;101532.22;5052771;28;20021;-84
2022/06/12 11:46:05;;;;;;;4.75;1.10;;;;;;;21.22;40.96;101529.72;5034179;28;20175;-82
2022/06/12 11:49:01;;;;;;;6.65;1.38;;;;;;;21.28;41.44;101531.22;5034327;28;20051;-84
2022/06/12 11:51:49;;;;;;;2.50;1.08;;;;;;;21.50;40.97;101517.78;5034593;28;20021;-82
2022/06/12 11:54:33;;;;;;;4.22;1.27;;;;;;;21.72;40.84;101514.03;5034324;28;20021;-82
2022/06/12 11:57:29;;;;;;;1.48;0.82;;;;;;;21.78;39.24;101519.91;5034097;28;20437;-82
2022/06/12 11:59:55;;;;;;;6.30;3.35;;;;;;;21.85;41.05;101499.19;5034158;28;20029;-82
2022/06/12 12:03:02;;;;;;;1.75;0.90;;;;;;;21.99;41.71;101503.84;5034487;28;20517;-82
2022/06/12 12:05:53;;;;;;;5.22;1.60;;;;;;;22.10;41.25;101509.44;5007748;28;20044;-82
2022/06/12 12:08:37;;;;;;;3.05;1.50;;;;;;;22.06;41.02;101497.25;5003488;28;20456;-82